createdAt,value
2022-12-09T00:01:14.161Z,100340.09
2022-12-09T00:05:17.544Z,100336.94
2022-12-09T00:09:20.586Z,100330.53
2022-12-09T00:13:24.839Z,100337.13
2022-12-09T00:17:27.702Z,100338.41
2022-12-09T00:21:31.950Z,100335.69
2022-12-09T00:25:34.700Z,100338.94
2022-12-09T00:29:38.884Z,100339.69
2022-12-09T00:33:41.667Z,100331.44
2022-12-09T00:37:46.268Z,100329.41
2022-12-09T00:41:52.183Z,100329.03
2022-12-09T00:45:56.534Z,100334.19
2022-12-09T00:49:59.292Z,100330.91
2022-12-09T00:54:04.095Z,100327.59
2022-12-09T00:58:07.020Z,100330.06
2022-12-09T01:02:11.542Z,100333.81
2022-12-09T01:06:18.219Z,100332.41
2022-12-09T01:10:22.438Z,100331.13
2022-12-09T01:14:25.337Z,100329.69
2022-12-09T01:18:29.666Z,100333.53
2022-12-09T01:22:32.682Z,100339.38
2022-12-09T01:26:35.686Z,100339.31
2022-12-09T01:30:38.637Z,100339.13
2022-12-09T01:34:45.086Z,100332.50
2022-12-09T01:38:48.583Z,100339.28
2022-12-09T01:42:51.577Z,100335.13
2022-12-09T01:47:00.295Z,100341.16
2022-12-09T01:51:11.858Z,100333.00
2022-12-09T01:55:15.594Z,100331.47
2022-12-09T01:59:18.804Z,100328.53
2022-12-09T02:03:22.255Z,100322.94
2022-12-09T02:07:28.197Z,100324.56
2022-12-09T02:11:46.388Z,100330.19
2022-12-09T02:15:57.158Z,100329.75
2022-12-09T02:20:09.847Z,100328.72
2022-12-09T02:24:21.258Z,100323.34
2022-12-09T02:28:47.731Z,100317.81
2022-12-09T02:33:13.634Z,100311.66
2022-12-09T02:37:22.024Z,100318.28
2022-12-09T02:41:34.028Z,100311.50
2022-12-09T02:45:40.842Z,100305.53
2022-12-09T02:49:45.505Z,100313.41
2022-12-09T02:53:54.356Z,100307.63
2022-12-09T02:58:01.259Z,100313.19
2022-12-09T03:02:19.327Z,100309.44
2022-12-09T03:06:29.009Z,100300.78
2022-12-09T03:10:38.544Z,100304.50
2022-12-09T03:14:44.850Z,100303.06
2022-12-09T03:18:51.754Z,100294.63
2022-12-09T03:22:57.127Z,100294.66
2022-12-09T03:27:07.033Z,100300.06
2022-12-09T03:31:14.841Z,100300.47
2022-12-09T03:35:22.755Z,100292.22
2022-12-09T03:39:29.221Z,100287.69
2022-12-09T03:43:39.973Z,100282.97
2022-12-09T03:47:43.112Z,100288.94
2022-12-09T03:51:50.485Z,100277.19
2022-12-09T03:56:00.616Z,100270.78
2022-12-09T04:00:07.181Z,100287.31
2022-12-09T04:04:16.173Z,100279.25
2022-12-09T04:08:19.143Z,100273.91
2022-12-09T04:12:21.894Z,100266.91
2022-12-09T04:16:26.269Z,100271.03
2022-12-09T04:20:29.085Z,100277.69
2022-12-09T04:24:31.899Z,100268.38
2022-12-09T04:28:34.691Z,100261.13
2022-12-09T04:32:38.923Z,100267.31
2022-12-09T04:36:41.840Z,100265.06
2022-12-09T04:40:44.846Z,100263.00
2022-12-09T04:44:48.093Z,100258.66
2022-12-09T04:48:52.688Z,100267.94
2022-12-09T04:52:55.972Z,100268.53
2022-12-09T04:56:59.037Z,100273.28
2022-12-09T05:01:06.968Z,100268.94
2022-12-09T05:05:12.371Z,100274.72
2022-12-09T05:09:15.299Z,100279.00
2022-12-09T05:13:18.844Z,100273.03
2022-12-09T05:17:21.886Z,100270.72
2022-12-09T05:21:26.461Z,100274.63
2022-12-09T05:25:29.827Z,100267.84
2022-12-09T05:29:32.647Z,100269.25
2022-12-09T05:33:36.087Z,100266.72
2022-12-09T05:37:40.651Z,100267.31
2022-12-09T05:41:44.558Z,100264.84
2022-12-09T05:45:47.445Z,100258.84
2022-12-09T05:49:50.420Z,100255.34
2022-12-09T05:53:55.895Z,100263.97
2022-12-09T05:57:59.116Z,100262.91
2022-12-09T06:02:06.908Z,100259.97
2022-12-09T06:06:14.875Z,100268.41
2022-12-09T06:10:19.807Z,100264.91
2022-12-09T06:14:23.068Z,100263.06
2022-12-09T06:18:26.025Z,100262.22
2022-12-09T06:22:29.262Z,100264.25
2022-12-09T06:26:33.801Z,100263.84
2022-12-09T06:30:37.756Z,100265.44
2022-12-09T06:34:40.751Z,100269.50
2022-12-09T06:38:43.888Z,100251.69
2022-12-09T06:42:50.546Z,100261.53
2022-12-09T06:46:53.797Z,100256.31
2022-12-09T06:50:57.408Z,100257.28
2022-12-09T06:55:00.886Z,100253.09
2022-12-09T06:59:09.485Z,100266.44
2022-12-09T07:03:13.793Z,100265.09
2022-12-09T07:07:16.908Z,100268.44
2022-12-09T07:11:20.132Z,100271.06
2022-12-09T07:15:24.717Z,100274.56
2022-12-09T07:19:27.697Z,100275.22
2022-12-09T07:23:30.714Z,100279.09
2022-12-09T07:27:33.861Z,100276.22
2022-12-09T07:31:38.370Z,100277.06
2022-12-09T07:35:41.568Z,100284.25
2022-12-09T07:39:44.828Z,100292.28
2022-12-09T07:43:49.191Z,100285.34
2022-12-09T07:47:53.805Z,100289.31
2022-12-09T07:51:56.842Z,100291.59
2022-12-09T07:56:03.512Z,100292.50
2022-12-09T08:00:08.761Z,100302.06
2022-12-09T08:04:16.313Z,100301.13
2022-12-09T08:08:19.988Z,100299.13
2022-12-09T08:12:23.083Z,100289.03
2022-12-09T08:16:26.810Z,100286.63
2022-12-09T08:20:31.773Z,100295.53
2022-12-09T08:24:35.394Z,100298.47
2022-12-09T08:28:38.723Z,100308.84
2022-12-09T08:32:41.756Z,100303.56
2022-12-09T08:36:46.496Z,100293.72
2022-12-09T08:40:49.426Z,100288.78
2022-12-09T08:44:57.122Z,100292.56
2022-12-09T08:49:05.403Z,100301.66
2022-12-09T08:53:09.971Z,100309.31
2022-12-09T08:57:12.996Z,100306.69
2022-12-09T09:01:17.274Z,100299.69
2022-12-09T09:05:20.877Z,100299.13
2022-12-09T09:09:25.389Z,100309.25
2022-12-09T09:13:28.631Z,100305.97
2022-12-09T09:17:31.681Z,100307.44
2022-12-09T09:21:35.712Z,100306.44
2022-12-09T09:25:45.539Z,100318.84
2022-12-09T09:29:48.381Z,100317.00
2022-12-09T09:33:51.907Z,100316.81
2022-12-09T09:37:56.128Z,100319.34
2022-12-09T09:42:08.149Z,100317.09
2022-12-09T09:46:19.893Z,100312.75
2022-12-09T09:50:36.042Z,100316.34
2022-12-09T09:54:39.403Z,100315.72
2022-12-09T09:58:50.328Z,100316.13
2022-12-09T10:03:02.460Z,100317.16
2022-12-09T10:07:14.401Z,100315.09
2022-12-09T10:11:26.134Z,100319.22
2022-12-09T10:15:34.655Z,100314.69
2022-12-09T10:19:42.051Z,100311.59
2022-12-09T10:23:47.269Z,100308.94
2022-12-09T10:27:57.544Z,100317.41
2022-12-09T10:32:01.807Z,100304.22
2022-12-09T10:36:05.758Z,100295.78
2022-12-09T10:40:24.881Z,100293.97
2022-12-09T10:44:29.679Z,100297.06
2022-12-09T10:48:37.681Z,100306.56
2022-12-09T10:52:45.357Z,100311.53
2022-12-09T10:57:02.890Z,100303.47
2022-12-09T11:01:09.554Z,100301.19
2022-12-09T11:05:25.784Z,100289.00
2022-12-09T11:09:31.015Z,100292.94
2022-12-09T11:13:42.008Z,100283.84
2022-12-09T11:17:57.694Z,100285.50
2022-12-09T11:22:21.595Z,100286.09
2022-12-09T11:26:32.378Z,100269.97
2022-12-09T11:30:47.152Z,100272.47
2022-12-09T11:35:01.148Z,100272.28
2022-12-09T11:39:26.260Z,100269.16
2022-12-09T11:43:35.307Z,100270.81
2022-12-09T11:48:20.337Z,100265.22
2022-12-09T11:52:22.462Z,100269.16
2022-12-09T11:56:27.888Z,100262.53
2022-12-09T12:00:37.365Z,100267.09
2022-12-09T12:04:52.776Z,100270.00
2022-12-09T12:09:02.041Z,100261.94
2022-12-09T12:13:13.791Z,100266.47
2022-12-09T12:17:20.771Z,100270.81
2022-12-09T12:21:47.591Z,100268.97
2022-12-09T12:26:00.509Z,100260.88
2022-12-09T12:30:09.403Z,100266.47
2022-12-09T12:34:24.996Z,100263.19
2022-12-09T12:38:38.970Z,100268.75
2022-12-09T12:43:07.116Z,100270.59
2022-12-09T12:47:19.123Z,100271.03
2022-12-09T12:51:31.909Z,100261.31
2022-12-09T12:55:48.961Z,100260.06
2022-12-09T13:00:02.454Z,100261.09
2022-12-09T13:04:21.514Z,100263.56
2022-12-09T13:08:30.957Z,100254.69
2022-12-09T13:12:51.546Z,100245.19
2022-12-09T13:16:54.684Z,100246.63
2022-12-09T13:21:00.039Z,100242.28
2022-12-09T13:25:15.988Z,100244.75
2022-12-09T13:29:31.052Z,100248.91
2022-12-09T13:33:45.880Z,100253.84
2022-12-09T13:38:01.005Z,100253.44
2022-12-09T13:42:21.350Z,100261.09
2022-12-09T13:46:25.933Z,100262.31
2022-12-09T13:50:34.674Z,100261.06
2022-12-09T13:54:48.973Z,100254.06
2022-12-09T13:59:25.103Z,100253.84
2022-12-09T14:03:32.044Z,100253.84
2022-12-09T14:07:41.746Z,100254.28
2022-12-09T14:11:48.798Z,100243.72
2022-12-09T14:16:23.956Z,100248.47
2022-12-09T14:20:32.581Z,100252.41
2022-12-09T14:24:36.621Z,100254.66
2022-12-09T14:28:53.848Z,100256.50
2022-12-09T14:32:57.574Z,100258.59
2022-12-09T14:37:12.572Z,100263.53
2022-12-09T14:41:26.545Z,100264.75
2022-12-09T14:45:37.231Z,100268.88
2022-12-09T14:49:48.488Z,100265.19
2022-12-09T14:53:56.295Z,100261.44
2022-12-09T14:58:01.869Z,100273.22
2022-12-09T15:02:21.005Z,100272.38
2022-12-09T15:06:26.789Z,100276.25
2022-12-09T15:10:36.216Z,100280.81
2022-12-09T15:14:39.910Z,100279.97
2022-12-09T15:18:46.186Z,100279.94
2022-12-09T15:22:53.025Z,100278.50
2022-12-09T15:27:00.392Z,100279.97
2022-12-09T15:31:18.263Z,100272.78
2022-12-09T15:35:25.764Z,100273.22
2022-12-09T15:39:31.742Z,100275.66
2022-12-09T15:43:37.394Z,100278.13
2022-12-09T15:47:43.662Z,100279.63
2022-12-09T15:51:49.874Z,100281.66
2022-12-09T15:55:57.827Z,100270.72
2022-12-09T16:00:00.641Z,100285.00
2022-12-09T16:04:06.272Z,100296.13
2022-12-09T16:08:11.411Z,100282.69
2022-12-09T16:12:32.381Z,100284.53
2022-12-09T16:16:42.561Z,100297.56
2022-12-09T16:21:01.176Z,100289.53
2022-12-09T16:25:21.223Z,100289.97
2022-12-09T16:29:27.396Z,100294.50
2022-12-09T16:33:35.043Z,100292.03
2022-12-09T16:37:40.536Z,100294.28
2022-12-09T16:42:00.652Z,100294.28
2022-12-09T16:46:37.275Z,100281.28
2022-12-09T16:50:43.660Z,100281.66
2022-12-09T16:54:47.930Z,100282.31
2022-12-09T16:58:52.961Z,100292.19
2022-12-09T17:03:00.791Z,100288.25
2022-12-09T17:07:03.494Z,100291.97
2022-12-09T17:11:06.514Z,100296.56
2022-12-09T17:15:14.593Z,100296.56
2022-12-09T17:19:17.777Z,100309.16
2022-12-09T17:23:20.592Z,100303.13
2022-12-09T17:27:23.410Z,100304.13
2022-12-09T17:31:28.054Z,100298.75
2022-12-09T17:35:33.694Z,100304.72
2022-12-09T17:39:36.594Z,100311.09
2022-12-09T17:43:39.399Z,100309.25
2022-12-09T17:47:43.491Z,100325.31
2022-12-09T17:51:46.635Z,100319.97
2022-12-09T17:55:49.571Z,100321.41
2022-12-09T17:59:52.291Z,100323.59
2022-12-09T18:04:04.381Z,100332.09
2022-12-09T18:08:10.616Z,100323.22
2022-12-09T18:12:13.385Z,100326.31
2022-12-09T18:16:16.717Z,100334.78
2022-12-09T18:20:21.074Z,100335.56
2022-12-09T18:24:24.131Z,100342.78
2022-12-09T18:28:27.649Z,100342.56
2022-12-09T18:32:36.005Z,100345.69
2022-12-09T18:36:40.617Z,100342.16
2022-12-09T18:41:00.955Z,100338.63
2022-12-09T18:45:03.807Z,100345.84
2022-12-09T18:49:08.965Z,100346.06
2022-12-09T18:53:13.047Z,100349.56
2022-12-09T18:57:15.874Z,100356.59
2022-12-09T19:01:21.430Z,100349.56
2022-12-09T19:05:26.201Z,100342.56
2022-12-09T19:09:34.621Z,100348.13
2022-12-09T19:13:37.817Z,100346.84
2022-12-09T19:17:42.506Z,100353.25
2022-12-09T19:21:46.659Z,100357.53
2022-12-09T19:25:50.725Z,100363.06
2022-12-09T19:29:53.711Z,100361.97
2022-12-09T19:33:57.442Z,100378.66
2022-12-09T19:38:01.519Z,100383.78
2022-12-09T19:42:06.080Z,100389.97
2022-12-09T19:46:11.013Z,100398.03
2022-12-09T19:50:13.810Z,100397.44
2022-12-09T19:54:17.357Z,100395.38
2022-12-09T19:58:22.839Z,100390.03
2022-12-09T20:02:26.982Z,100400.19
2022-12-09T20:06:30.541Z,100403.03
2022-12-09T20:10:34.242Z,100397.50
2022-12-09T20:14:40.648Z,100398.50
2022-12-09T20:18:43.844Z,100404.31
2022-12-09T20:22:46.647Z,100398.75
2022-12-09T20:26:49.455Z,100399.22
2022-12-09T20:30:53.564Z,100392.63
2022-12-09T20:34:56.376Z,100402.31
2022-12-09T20:39:00.467Z,100402.06
2022-12-09T20:43:03.213Z,100392.13
2022-12-09T20:47:07.344Z,100412.38
2022-12-09T20:51:13.914Z,100405.16
2022-12-09T20:55:16.809Z,100417.22
2022-12-09T20:59:19.662Z,100417.00
2022-12-09T21:03:23.958Z,100410.41
2022-12-09T21:07:26.720Z,100410.66
2022-12-09T21:11:29.582Z,100419.66
2022-12-09T21:15:32.413Z,100417.28
2022-12-09T21:19:36.798Z,100410.84
2022-12-09T21:23:39.843Z,100404.84
2022-12-09T21:27:42.593Z,100406.72
2022-12-09T21:31:48.083Z,100405.88
2022-12-09T21:35:52.233Z,100407.03
2022-12-09T21:39:55.069Z,100412.50
2022-12-09T21:43:58.423Z,100410.41
2022-12-09T21:48:01.970Z,100413.59
2022-12-09T21:52:07.149Z,100412.13
2022-12-09T21:56:14.112Z,100412.28
2022-12-09T22:00:17.626Z,100419.69
2022-12-09T22:04:20.432Z,100418.44
2022-12-09T22:08:24.540Z,100421.41
2022-12-09T22:12:27.330Z,100428.78
2022-12-09T22:16:32.268Z,100418.84
2022-12-09T22:25:08.431Z,100426.22
2022-12-09T22:29:12.389Z,100429.00
2022-12-09T22:33:15.099Z,100432.44
2022-12-09T22:37:42.600Z,100436.41
2022-12-09T22:41:43.793Z,100434.00
2022-12-09T22:45:46.642Z,100436.22
2022-12-09T22:49:49.513Z,100428.56
2022-12-09T22:53:54.089Z,100431.59
2022-12-09T22:57:58.210Z,100437.50
2022-12-09T23:02:01.302Z,100425.34
2022-12-09T23:06:04.143Z,100429.38
2022-12-09T23:10:07.800Z,100423.56
2022-12-09T23:14:12.063Z,100425.13
2022-12-09T23:18:14.777Z,100435.34
2022-12-09T23:22:18.654Z,100433.25
2022-12-09T23:26:26.823Z,100430.91
2022-12-09T23:30:31.156Z,100435.69
2022-12-09T23:34:33.888Z,100435.94
2022-12-09T23:38:36.900Z,100435.19
2022-12-09T23:42:39.611Z,100438.22
2022-12-09T23:46:44.147Z,100439.41
2022-12-09T23:50:46.907Z,100441.59
2022-12-09T23:54:49.632Z,100441.94
2022-12-09T23:58:55.144Z,100449.50
